Ems Express — WDC6662 — position and weather

sailwx.info

Track history (hours):
 
Tides and Currents Weather Stations Pressure Air Temp Water Temp Dewpoint Dewpoint Depression Visibility Wind Speed Wind Dir Waves Ship Positions

Ems Express

Owner: Marquette Transportation Company Gulf-Inland, LLC, Jefferson, LA. More information available from US FCC via Universal Licensing System and Coast Guard Vessel Documentation Center.

Last reported at 2017-Sep-16 16:34 UTC. Time now 2017-Sep-20 02:12 UTC.
Position N 29°46' W 095°05'.

Length 22 m; draft 2.9 m.

Type: . MMSI: 367059310.

Date/timePositionNaut miles runAvg speedWind from/ knotsBaromVisibWave heightAir tempDewpointWater temp
2017-Sep-16 16:34N 29°46' W 095°05'0 0.0
2017-Sep-16 16:13N 29°46' W 095°05'0 0.0
2017-Sep-16 15:54N 29°46' W 095°05'0 0.0
2017-Sep-16 15:23N 29°46' W 095°05'0 0.0
2017-Sep-16 14:18N 29°46' W 095°05'0 0.0
2017-Sep-16 13:56N 29°46' W 095°05'0 0.0
2017-Sep-16 09:39N 29°46' W 095°05'0 0.0
2017-Sep-16 09:29N 29°46' W 095°05'0 0.0
2017-Sep-16 08:39N 29°46' W 095°05'0 0.0
2017-Sep-16 08:22N 29°46' W 095°05'0 0.0
2017-Sep-16 07:41N 29°46' W 095°05'0 0.0
2017-Sep-16 07:25N 29°46' W 095°05'0 0.0
2017-Sep-16 06:51N 29°46' W 095°05'0 0.0
2017-Sep-16 06:29N 29°46' W 095°05'0 0.0
2017-Sep-16 06:00N 29°46' W 095°05'0 0.0
2017-Sep-16 05:30N 29°46' W 095°05'0 0.0
2017-Sep-16 04:58N 29°46' W 095°05'0 0.0
2017-Sep-16 04:23N 29°46' W 095°05'0 0.0
2017-Sep-16 03:52N 29°46' W 095°05'0 0.0
2017-Sep-16 03:30N 29°46' W 095°05'0 0.0
2017-Sep-16 02:58N 29°46' W 095°05'0 0.0
2017-Sep-16 02:07N 29°46' W 095°05'0 0.0
2017-Sep-16 02:00N 29°46' W 095°05'0 0.0
2017-Sep-15 11:20N 29°46' W 095°05'0 0.0
2017-Sep-15 11:00N 29°46' W 095°05'0 0.0
2017-Sep-15 10:30N 29°46' W 095°05'0 0.0
2017-Sep-15 10:00N 29°46' W 095°05'0 0.0
2017-Sep-15 09:28N 29°46' W 095°05'0 0.0
2017-Sep-15 03:43N 29°46' W 095°05'2 0.1
2017-Sep-13 10:41N 29°44' W 095°04'2 4.5
2017-Sep-13 10:11N 29°43' W 095°01'1 5.0
2017-Sep-13 10:00N 29°42' W 095°01'2 4.5
2017-Sep-13 09:28N 29°41' W 094°59'2 4.9
2017-Sep-13 09:00N 29°39' W 094°58'3 5.2
2017-Sep-13 08:22N 29°36' W 094°57'1 4.1
2017-Sep-13 08:00N 29°35' W 094°56'3 5.2
2017-Sep-13 07:28N 29°32' W 094°54'91 3.6
2017-Sep-12 06:19N 30°10' W 093°19'0 0.0
2017-Sep-12 06:00N 30°10' W 093°19'0 0.0
2017-Sep-12 05:29N 30°10' W 093°19'0 0.0
2017-Sep-12 05:01N 30°10' W 093°19'0 0.0
2017-Sep-12 04:31N 30°10' W 093°19'0 0.0
2017-Sep-12 04:00N 30°10' W 093°19'0 0.0
2017-Sep-12 03:30N 30°10' W 093°19'0 0.0
2017-Sep-12 03:01N 30°10' W 093°19'0 0.0
2017-Sep-12 02:31N 30°10' W 093°19'0 0.0
2017-Sep-12 02:01N 30°10' W 093°19'0 0.0
2017-Sep-12 01:31N 30°10' W 093°19'0 0.0
2017-Sep-12 01:01N 30°10' W 093°19'0 0.0
2017-Sep-12 00:31N 30°10' W 093°19'0 0.0
2017-Sep-12 00:01N 30°10' W 093°19'0 0.0
2017-Sep-11 23:30N 30°10' W 093°19'0 0.0
2017-Sep-11 23:01N 30°10' W 093°19'0 0.0
2017-Sep-11 22:31N 30°10' W 093°19'0 0.0
2017-Sep-11 22:00N 30°10' W 093°19'0 0.0
2017-Sep-11 21:31N 30°10' W 093°19'0 0.0
2017-Sep-11 21:00N 30°10' W 093°19'0 0.0
2017-Sep-11 20:30N 30°10' W 093°19'0 0.0
2017-Sep-11 20:00N 30°10' W 093°19'0 0.0
2017-Sep-11 19:30N 30°10' W 093°19'0 0.0
2017-Sep-11 19:00N 30°10' W 093°19'0 0.0
2017-Sep-11 18:30N 30°10' W 093°19'0 0.0
2017-Sep-11 18:01N 30°10' W 093°19'0 0.0
2017-Sep-11 17:31N 30°10' W 093°19'0 0.0
2017-Sep-11 17:00N 30°10' W 093°19'0 0.0
2017-Sep-11 16:30N 30°10' W 093°19'0 0.0
2017-Sep-11 16:01N 30°10' W 093°19'0 0.0
2017-Sep-11 15:31N 30°10' W 093°19'0 0.0
2017-Sep-11 14:52N 30°10' W 093°19'0 0.0
2017-Sep-11 14:30N 30°10' W 093°19'0 0.0
2017-Sep-11 14:00N 30°10' W 093°19'0 0.0
2017-Sep-11 13:28N 30°10' W 093°19'0 0.0
2017-Sep-11 12:01N 30°10' W 093°19'0 0.0
2017-Sep-11 12:00N 30°10' W 093°19'0 0.0
2017-Sep-11 11:28N 30°10' W 093°19'0 0.0
2017-Sep-11 11:00N 30°10' W 093°19'0 0.0
2017-Sep-11 10:30N 30°10' W 093°19'0 0.0
2017-Sep-11 09:57N 30°10' W 093°19'0 0.0
2017-Sep-11 09:31N 30°10' W 093°19'0 0.0
2017-Sep-11 09:01N 30°10' W 093°19'0 0.0
2017-Sep-11 08:28N 30°10' W 093°19'0 0.0
2017-Sep-11 08:01N 30°10' W 093°19'0 0.0
2017-Sep-11 07:29N 30°10' W 093°19'1 0.9
2017-Sep-11 06:37N 30°11' W 093°18'0 0.0
2017-Sep-11 06:19N 30°11' W 093°18'0 0.0
2017-Sep-11 05:55N 30°11' W 093°18'0 0.0
2017-Sep-11 05:29N 30°11' W 093°18'0 0.0
2017-Sep-11 05:00N 30°11' W 093°18'0 0.0
2017-Sep-11 04:28N 30°11' W 093°18'0 0.0
2017-Sep-11 04:01N 30°11' W 093°18'0 0.0
2017-Sep-11 03:30N 30°11' W 093°18'0 0.0
2017-Sep-11 02:55N 30°11' W 093°18'0 0.0
2017-Sep-11 02:31N 30°11' W 093°18'0 0.0
2017-Sep-11 01:57N 30°11' W 093°18'0 0.0
2017-Sep-11 01:31N 30°11' W 093°18'0 0.0
2017-Sep-11 01:00N 30°11' W 093°18'0 0.0
2017-Sep-11 00:30N 30°11' W 093°18'0 0.0
2017-Sep-11 00:01N 30°11' W 093°18'0 0.0
2017-Sep-10 23:30N 30°11' W 093°18'0 0.0
2017-Sep-10 23:01N 30°11' W 093°18'0 0.0
2017-Sep-10 22:31N 30°11' W 093°18'0 0.0
2017-Sep-10 22:01N 30°11' W 093°18'0 0.0
2017-Sep-10 21:31N 30°11' W 093°18'0 0.0
2017-Sep-10 21:01N 30°11' W 093°18'0 0.0
2017-Sep-10 20:30N 30°11' W 093°18'0 0.0
2017-Sep-10 20:00N 30°11' W 093°18'0 0.0
2017-Sep-10 19:31N 30°11' W 093°18'0 0.0
2017-Sep-10 19:00N 30°11' W 093°18'0 0.0
2017-Sep-10 18:31N 30°11' W 093°18'0 0.0
2017-Sep-10 18:01N 30°11' W 093°18'0 0.0
2017-Sep-10 17:30N 30°11' W 093°18'0 0.0
2017-Sep-10 17:01N 30°11' W 093°18'0 0.0
2017-Sep-10 16:31N 30°11' W 093°18'0 0.0
2017-Sep-10 16:01N 30°11' W 093°18'0 0.0
2017-Sep-10 15:31N 30°11' W 093°18'1 2.4
2017-Sep-10 15:01N 30°10' W 093°19'1 1.3
2017-Sep-10 14:01N 30°09' W 093°20'0 0.0
2017-Sep-10 12:50N 30°09' W 093°20'0 0.0
2017-Sep-10 12:30N 30°09' W 093°20'0 0.0
2017-Sep-10 11:57N 30°09' W 093°20'0 0.0
2017-Sep-10 10:17N 30°09' W 093°20'0 0.0
2017-Sep-10 10:00N 30°09' W 093°20'0 0.0
2017-Sep-10 09:30N 30°09' W 093°20'0 0.0
2017-Sep-10 09:00N 30°09' W 093°20'0 0.0
2017-Sep-10 08:30N 30°09' W 093°20'0 0.0
2017-Sep-10 07:58N 30°09' W 093°20'0 0.0
2017-Sep-10 07:30N 30°09' W 093°20'0 0.0
2017-Sep-10 07:00N 30°09' W 093°20'0 0.0
2017-Sep-10 06:30N 30°09' W 093°20'0 0.0
2017-Sep-10 06:00N 30°09' W 093°20'0 0.0
2017-Sep-10 05:29N 30°09' W 093°20'0 0.0
2017-Sep-10 05:00N 30°09' W 093°20'0 0.0
2017-Sep-10 04:30N 30°09' W 093°20'0 0.0
2017-Sep-10 04:00N 30°09' W 093°20'0 0.0
2017-Sep-10 03:30N 30°09' W 093°20'0 0.0
2017-Sep-10 03:00N 30°09' W 093°20'0 0.0
2017-Sep-10 02:30N 30°09' W 093°20'0 0.0
2017-Sep-10 02:00N 30°09' W 093°20'0 0.0
2017-Sep-10 01:30N 30°09' W 093°20'0 0.0
2017-Sep-10 01:00N 30°09' W 093°20'0 0.0
2017-Sep-10 00:30N 30°09' W 093°20'0 0.0
2017-Sep-10 00:00N 30°09' W 093°20'0 0.0
2017-Sep-09 23:30N 30°09' W 093°20'0 0.0
2017-Sep-09 23:00N 30°09' W 093°20'0 0.0
2017-Sep-09 22:30N 30°09' W 093°20'0 0.0
2017-Sep-09 22:00N 30°09' W 093°20'0 0.0
2017-Sep-09 21:30N 30°09' W 093°20'0 0.0
2017-Sep-09 21:00N 30°09' W 093°20'0 0.0
2017-Sep-09 20:30N 30°09' W 093°20'0 0.0
2017-Sep-09 20:00N 30°09' W 093°20'0 0.0
2017-Sep-09 19:30N 30°09' W 093°20'0 0.0
2017-Sep-09 19:00N 30°09' W 093°20'0 0.0
2017-Sep-09 18:30N 30°09' W 093°20'0 0.0
2017-Sep-09 18:00N 30°09' W 093°20'0 0.0
2017-Sep-09 17:30N 30°09' W 093°20'0 0.0
2017-Sep-09 17:00N 30°09' W 093°20'0 0.0
2017-Sep-09 16:30N 30°09' W 093°20'0 0.0
2017-Sep-09 16:00N 30°09' W 093°20'0 0.0
2017-Sep-09 15:30N 30°09' W 093°20'0 0.0
2017-Sep-09 15:00N 30°09' W 093°20'0 0.0
2017-Sep-09 14:29N 30°09' W 093°20'0 0.0
2017-Sep-09 13:58N 30°09' W 093°20'0 0.0
2017-Sep-09 13:03N 30°09' W 093°20'0 0.0
2017-Sep-09 13:00N 30°09' W 093°20'0 0.0
2017-Sep-09 12:30N 30°09' W 093°20'0 0.0
2017-Sep-09 12:00N 30°09' W 093°20'0 0.0
2017-Sep-09 11:29N 30°09' W 093°20'0 0.0
2017-Sep-09 10:57N 30°09' W 093°20'0 0.0
2017-Sep-09 10:26N 30°09' W 093°20'0 0.0
2017-Sep-09 09:58N 30°09' W 093°20'0 0.0
2017-Sep-09 09:30N 30°09' W 093°20'0 0.0
2017-Sep-09 08:58N 30°09' W 093°20'0 0.0
2017-Sep-09 08:30N 30°09' W 093°20'0 0.0
2017-Sep-09 07:59N 30°09' W 093°20'0 0.0
2017-Sep-09 07:30N 30°09' W 093°20'0 0.0
2017-Sep-09 07:00N 30°09' W 093°20'0 0.0
2017-Sep-09 06:30N 30°09' W 093°20'1 0.3
2017-Sep-09 04:29N 30°08' W 093°19'0 0.2
2017-Sep-09 03:50N 30°08' W 093°19'0 0.0
2017-Sep-09 03:10N 30°08' W 093°19'0 0.0
2017-Sep-09 03:00N 30°08' W 093°19'0 0.0
2017-Sep-09 02:22N 30°08' W 093°19'0 0.0
2017-Sep-09 02:00N 30°08' W 093°19'0 0.0
2017-Sep-09 01:21N 30°08' W 093°19'0 0.0
2017-Sep-09 01:00N 30°08' W 093°19'0 0.0
2017-Sep-09 00:30N 30°08' W 093°19'0 0.0
2017-Sep-09 00:00N 30°08' W 093°19'0 0.0
2017-Sep-08 23:30N 30°08' W 093°19'0 0.0
2017-Sep-08 23:00N 30°08' W 093°19'0 0.0
2017-Sep-08 22:30N 30°08' W 093°19'0 0.0
2017-Sep-08 22:00N 30°08' W 093°19'0 0.0
2017-Sep-08 21:30N 30°08' W 093°19'0 0.0
2017-Sep-08 21:00N 30°08' W 093°19'0 0.0
2017-Sep-08 20:30N 30°08' W 093°19'0 0.0
2017-Sep-08 20:00N 30°08' W 093°19'0 0.0
2017-Sep-08 19:30N 30°08' W 093°19'0 0.0
2017-Sep-08 19:00N 30°08' W 093°19'0 0.0
2017-Sep-08 18:30N 30°08' W 093°19'0 0.0
2017-Sep-08 18:00N 30°08' W 093°19'0 0.0
2017-Sep-08 17:30N 30°08' W 093°19'0 0.0
2017-Sep-08 17:00N 30°08' W 093°19'0 0.0
2017-Sep-08 16:30N 30°08' W 093°19'0 0.0
2017-Sep-08 16:00N 30°08' W 093°19'0 0.0
2017-Sep-08 15:30N 30°08' W 093°19'0 0.0
2017-Sep-08 15:00N 30°08' W 093°19'0 0.0
2017-Sep-08 14:30N 30°08' W 093°19'0 0.0
2017-Sep-08 14:00N 30°08' W 093°19'0 0.0
2017-Sep-08 13:30N 30°08' W 093°19'0 0.0
2017-Sep-08 13:00N 30°08' W 093°19'0 0.0
2017-Sep-08 12:30N 30°08' W 093°19'0 0.0
2017-Sep-08 12:00N 30°08' W 093°19'0 0.0
2017-Sep-08 11:30N 30°08' W 093°19'0 0.0
2017-Sep-08 09:54N 30°08' W 093°19'0 0.0
2017-Sep-08 08:48N 30°08' W 093°19'0 0.0
2017-Sep-08 08:18N 30°08' W 093°19'0 0.0
2017-Sep-08 07:55N 30°08' W 093°19'0 0.0
2017-Sep-08 07:30N 30°08' W 093°19'0 0.0
2017-Sep-08 06:44N 30°08' W 093°19'0 0.0
2017-Sep-08 06:16N 30°08' W 093°19'0 0.0
2017-Sep-08 04:57N 30°08' W 093°19'3 1.1
2017-Sep-08 02:17N 30°05' W 093°20'0 0.0
2017-Sep-08 01:55N 30°05' W 093°20'0 0.0
2017-Sep-08 01:30N 30°05' W 093°20'2 3.4
2017-Sep-08 01:00N 30°04' W 093°21'2 4.9
2017-Sep-08 00:30N 30°04' W 093°24'1 1.5
2017-Sep-08 00:00N 30°04' W 093°25'0 0.3
2017-Sep-07 23:30N 30°04' W 093°25'0 0.1
2017-Sep-07 23:00N 30°04' W 093°25'0 0.0
2017-Sep-07 22:30N 30°04' W 093°25'0 0.0
2017-Sep-07 22:00N 30°04' W 093°25'0 0.0
2017-Sep-07 21:30N 30°04' W 093°25'0 0.0
2017-Sep-07 21:00N 30°04' W 093°25'0 0.0
2017-Sep-07 20:30N 30°04' W 093°25'0 0.0
2017-Sep-07 20:00N 30°04' W 093°25'0 0.0
2017-Sep-07 19:30N 30°04' W 093°25'0 0.0
2017-Sep-07 19:00N 30°04' W 093°25'0 0.0
2017-Sep-07 18:30N 30°04' W 093°25'0 0.0
2017-Sep-07 18:00N 30°04' W 093°25'0 0.0
2017-Sep-07 17:30N 30°04' W 093°25'0 0.0
2017-Sep-07 17:00N 30°04' W 093°25'0 0.0
2017-Sep-07 16:30N 30°04' W 093°25'0 0.0
2017-Sep-07 16:00N 30°04' W 093°25'0 0.0
2017-Sep-07 15:30N 30°04' W 093°25'0 0.0
2017-Sep-07 15:00N 30°04' W 093°25'0 0.0
2017-Sep-07 14:30N 30°04' W 093°25'0 0.0
2017-Sep-07 12:08N 30°04' W 093°25'0 0.0
2017-Sep-07 11:59N 30°04' W 093°25'0 0.0
2017-Sep-07 11:30N 30°04' W 093°25'0 0.0
2017-Sep-07 11:00N 30°04' W 093°25'0 0.0
2017-Sep-07 10:29N 30°04' W 093°25'0 0.0
2017-Sep-07 10:00N 30°04' W 093°25'0 0.0
2017-Sep-07 09:30N 30°04' W 093°25'0 0.0
2017-Sep-07 09:00N 30°04' W 093°25'0 0.0
2017-Sep-07 08:30N 30°04' W 093°25'0 0.0
2017-Sep-07 08:00N 30°04' W 093°25'0 0.0
2017-Sep-07 07:30N 30°04' W 093°25'0 0.0
2017-Sep-07 07:00N 30°04' W 093°25'0 0.0
2017-Sep-07 06:30N 30°04' W 093°25'0 0.2
2017-Sep-07 06:00N 30°04' W 093°25'0 0.8
2017-Sep-07 05:30N 30°04' W 093°25'3 5.8
2017-Sep-07 05:00N 30°04' W 093°29'3 6.0
2017-Sep-07 04:29N 30°04' W 093°32'3 5.8
2017-Sep-07 04:00N 30°03' W 093°36'1 2.5
2017-Sep-07 03:30N 30°03' W 093°37'3 5.4
2017-Sep-07 03:00N 30°04' W 093°40'2 4.1
2017-Sep-07 02:30N 30°03' W 093°43'  
Track history (hours):
 
Tides and Currents Weather Stations Pressure Air Temp Water Temp Dewpoint Dewpoint Depression Visibility Wind Speed Wind Dir Waves Ship Positions

Ems Express

Owner: Marquette Transportation Company Gulf-Inland, LLC, Jefferson, LA. More information available from US FCC via Universal Licensing System and Coast Guard Vessel Documentation Center.

Last reported at 2017-Sep-16 16:34 UTC. Time now 2017-Sep-20 02:12 UTC.
Position N 29°46' W 095°05'.

Length 22 m; draft 2.9 m.

Type: . MMSI: 367059310.

Date/timePositionNaut miles runAvg speedWind from/ knotsBaromVisibWave heightAir tempDewpointWater temp
2017-Sep-16 16:34N 29°46' W 095°05'0 0.0
2017-Sep-16 16:13N 29°46' W 095°05'0 0.0
2017-Sep-16 15:54N 29°46' W 095°05'0 0.0
2017-Sep-16 15:23N 29°46' W 095°05'0 0.0
2017-Sep-16 14:18N 29°46' W 095°05'0 0.0
2017-Sep-16 13:56N 29°46' W 095°05'0 0.0
2017-Sep-16 09:39N 29°46' W 095°05'0 0.0
2017-Sep-16 09:29N 29°46' W 095°05'0 0.0
2017-Sep-16 08:39N 29°46' W 095°05'0 0.0
2017-Sep-16 08:22N 29°46' W 095°05'0 0.0
2017-Sep-16 07:41N 29°46' W 095°05'0 0.0
2017-Sep-16 07:25N 29°46' W 095°05'0 0.0
2017-Sep-16 06:51N 29°46' W 095°05'0 0.0
2017-Sep-16 06:29N 29°46' W 095°05'0 0.0
2017-Sep-16 06:00N 29°46' W 095°05'0 0.0
2017-Sep-16 05:30N 29°46' W 095°05'0 0.0
2017-Sep-16 04:58N 29°46' W 095°05'0 0.0
2017-Sep-16 04:23N 29°46' W 095°05'0 0.0
2017-Sep-16 03:52N 29°46' W 095°05'0 0.0
2017-Sep-16 03:30N 29°46' W 095°05'0 0.0
2017-Sep-16 02:58N 29°46' W 095°05'0 0.0
2017-Sep-16 02:07N 29°46' W 095°05'0 0.0
2017-Sep-16 02:00N 29°46' W 095°05'0 0.0
2017-Sep-15 11:20N 29°46' W 095°05'0 0.0
2017-Sep-15 11:00N 29°46' W 095°05'0 0.0
2017-Sep-15 10:30N 29°46' W 095°05'0 0.0
2017-Sep-15 10:00N 29°46' W 095°05'0 0.0
2017-Sep-15 09:28N 29°46' W 095°05'0 0.0
2017-Sep-15 03:43N 29°46' W 095°05'2 0.1
2017-Sep-13 10:41N 29°44' W 095°04'2 4.5
2017-Sep-13 10:11N 29°43' W 095°01'1 5.0
2017-Sep-13 10:00N 29°42' W 095°01'2 4.5
2017-Sep-13 09:28N 29°41' W 094°59'2 4.9
2017-Sep-13 09:00N 29°39' W 094°58'3 5.2
2017-Sep-13 08:22N 29°36' W 094°57'1 4.1
2017-Sep-13 08:00N 29°35' W 094°56'3 5.2
2017-Sep-13 07:28N 29°32' W 094°54'91 3.6
2017-Sep-12 06:19N 30°10' W 093°19'0 0.0
2017-Sep-12 06:00N 30°10' W 093°19'0 0.0
2017-Sep-12 05:29N 30°10' W 093°19'0 0.0
2017-Sep-12 05:01N 30°10' W 093°19'0 0.0
2017-Sep-12 04:31N 30°10' W 093°19'0 0.0
2017-Sep-12 04:00N 30°10' W 093°19'0 0.0
2017-Sep-12 03:30N 30°10' W 093°19'0 0.0
2017-Sep-12 03:01N 30°10' W 093°19'0 0.0
2017-Sep-12 02:31N 30°10' W 093°19'0 0.0
2017-Sep-12 02:01N 30°10' W 093°19'0 0.0
2017-Sep-12 01:31N 30°10' W 093°19'0 0.0
2017-Sep-12 01:01N 30°10' W 093°19'0 0.0
2017-Sep-12 00:31N 30°10' W 093°19'0 0.0
2017-Sep-12 00:01N 30°10' W 093°19'0 0.0
2017-Sep-11 23:30N 30°10' W 093°19'0 0.0
2017-Sep-11 23:01N 30°10' W 093°19'0 0.0
2017-Sep-11 22:31N 30°10' W 093°19'0 0.0
2017-Sep-11 22:00N 30°10' W 093°19'0 0.0
2017-Sep-11 21:31N 30°10' W 093°19'0 0.0
2017-Sep-11 21:00N 30°10' W 093°19'0 0.0
2017-Sep-11 20:30N 30°10' W 093°19'0 0.0
2017-Sep-11 20:00N 30°10' W 093°19'0 0.0
2017-Sep-11 19:30N 30°10' W 093°19'0 0.0
2017-Sep-11 19:00N 30°10' W 093°19'0 0.0
2017-Sep-11 18:30N 30°10' W 093°19'0 0.0
2017-Sep-11 18:01N 30°10' W 093°19'0 0.0
2017-Sep-11 17:31N 30°10' W 093°19'0 0.0
2017-Sep-11 17:00N 30°10' W 093°19'0 0.0
2017-Sep-11 16:30N 30°10' W 093°19'0 0.0
2017-Sep-11 16:01N 30°10' W 093°19'0 0.0
2017-Sep-11 15:31N 30°10' W 093°19'0 0.0
2017-Sep-11 14:52N 30°10' W 093°19'0 0.0
2017-Sep-11 14:30N 30°10' W 093°19'0 0.0
2017-Sep-11 14:00N 30°10' W 093°19'0 0.0
2017-Sep-11 13:28N 30°10' W 093°19'0 0.0
2017-Sep-11 12:01N 30°10' W 093°19'0 0.0
2017-Sep-11 12:00N 30°10' W 093°19'0 0.0
2017-Sep-11 11:28N 30°10' W 093°19'0 0.0
2017-Sep-11 11:00N 30°10' W 093°19'0 0.0
2017-Sep-11 10:30N 30°10' W 093°19'0 0.0
2017-Sep-11 09:57N 30°10' W 093°19'0 0.0
2017-Sep-11 09:31N 30°10' W 093°19'0 0.0
2017-Sep-11 09:01N 30°10' W 093°19'0 0.0
2017-Sep-11 08:28N 30°10' W 093°19'0 0.0
2017-Sep-11 08:01N 30°10' W 093°19'0 0.0
2017-Sep-11 07:29N 30°10' W 093°19'1 0.9
2017-Sep-11 06:37N 30°11' W 093°18'0 0.0
2017-Sep-11 06:19N 30°11' W 093°18'0 0.0
2017-Sep-11 05:55N 30°11' W 093°18'0 0.0
2017-Sep-11 05:29N 30°11' W 093°18'0 0.0
2017-Sep-11 05:00N 30°11' W 093°18'0 0.0
2017-Sep-11 04:28N 30°11' W 093°18'0 0.0
2017-Sep-11 04:01N 30°11' W 093°18'0 0.0
2017-Sep-11 03:30N 30°11' W 093°18'0 0.0
2017-Sep-11 02:55N 30°11' W 093°18'0 0.0
2017-Sep-11 02:31N 30°11' W 093°18'0 0.0
2017-Sep-11 01:57N 30°11' W 093°18'0 0.0
2017-Sep-11 01:31N 30°11' W 093°18'0 0.0
2017-Sep-11 01:00N 30°11' W 093°18'0 0.0
2017-Sep-11 00:30N 30°11' W 093°18'0 0.0
2017-Sep-11 00:01N 30°11' W 093°18'0 0.0
2017-Sep-10 23:30N 30°11' W 093°18'0 0.0
2017-Sep-10 23:01N 30°11' W 093°18'0 0.0
2017-Sep-10 22:31N 30°11' W 093°18'0 0.0
2017-Sep-10 22:01N 30°11' W 093°18'0 0.0
2017-Sep-10 21:31N 30°11' W 093°18'0 0.0
2017-Sep-10 21:01N 30°11' W 093°18'0 0.0
2017-Sep-10 20:30N 30°11' W 093°18'0 0.0
2017-Sep-10 20:00N 30°11' W 093°18'0 0.0
2017-Sep-10 19:31N 30°11' W 093°18'0 0.0
2017-Sep-10 19:00N 30°11' W 093°18'0 0.0
2017-Sep-10 18:31N 30°11' W 093°18'0 0.0
2017-Sep-10 18:01N 30°11' W 093°18'0 0.0
2017-Sep-10 17:30N 30°11' W 093°18'0 0.0
2017-Sep-10 17:01N 30°11' W 093°18'0 0.0
2017-Sep-10 16:31N 30°11' W 093°18'0 0.0
2017-Sep-10 16:01N 30°11' W 093°18'0 0.0
2017-Sep-10 15:31N 30°11' W 093°18'1 2.4
2017-Sep-10 15:01N 30°10' W 093°19'1 1.3
2017-Sep-10 14:01N 30°09' W 093°20'0 0.0
2017-Sep-10 12:50N 30°09' W 093°20'0 0.0
2017-Sep-10 12:30N 30°09' W 093°20'0 0.0
2017-Sep-10 11:57N 30°09' W 093°20'0 0.0
2017-Sep-10 10:17N 30°09' W 093°20'0 0.0
2017-Sep-10 10:00N 30°09' W 093°20'0 0.0
2017-Sep-10 09:30N 30°09' W 093°20'0 0.0
2017-Sep-10 09:00N 30°09' W 093°20'0 0.0
2017-Sep-10 08:30N 30°09' W 093°20'0 0.0
2017-Sep-10 07:58N 30°09' W 093°20'0 0.0
2017-Sep-10 07:30N 30°09' W 093°20'0 0.0
2017-Sep-10 07:00N 30°09' W 093°20'0 0.0
2017-Sep-10 06:30N 30°09' W 093°20'0 0.0
2017-Sep-10 06:00N 30°09' W 093°20'0 0.0
2017-Sep-10 05:29N 30°09' W 093°20'0 0.0
2017-Sep-10 05:00N 30°09' W 093°20'0 0.0
2017-Sep-10 04:30N 30°09' W 093°20'0 0.0
2017-Sep-10 04:00N 30°09' W 093°20'0 0.0
2017-Sep-10 03:30N 30°09' W 093°20'0 0.0
2017-Sep-10 03:00N 30°09' W 093°20'0 0.0
2017-Sep-10 02:30N 30°09' W 093°20'0 0.0
2017-Sep-10 02:00N 30°09' W 093°20'0 0.0
2017-Sep-10 01:30N 30°09' W 093°20'0 0.0
2017-Sep-10 01:00N 30°09' W 093°20'0 0.0
2017-Sep-10 00:30N 30°09' W 093°20'0 0.0
2017-Sep-10 00:00N 30°09' W 093°20'0 0.0
2017-Sep-09 23:30N 30°09' W 093°20'0 0.0
2017-Sep-09 23:00N 30°09' W 093°20'0 0.0
2017-Sep-09 22:30N 30°09' W 093°20'0 0.0
2017-Sep-09 22:00N 30°09' W 093°20'0 0.0
2017-Sep-09 21:30N 30°09' W 093°20'0 0.0
2017-Sep-09 21:00N 30°09' W 093°20'0 0.0
2017-Sep-09 20:30N 30°09' W 093°20'0 0.0
2017-Sep-09 20:00N 30°09' W 093°20'0 0.0
2017-Sep-09 19:30N 30°09' W 093°20'0 0.0
2017-Sep-09 19:00N 30°09' W 093°20'0 0.0
2017-Sep-09 18:30N 30°09' W 093°20'0 0.0
2017-Sep-09 18:00N 30°09' W 093°20'0 0.0
2017-Sep-09 17:30N 30°09' W 093°20'0 0.0
2017-Sep-09 17:00N 30°09' W 093°20'0 0.0
2017-Sep-09 16:30N 30°09' W 093°20'0 0.0
2017-Sep-09 16:00N 30°09' W 093°20'0 0.0
2017-Sep-09 15:30N 30°09' W 093°20'0 0.0
2017-Sep-09 15:00N 30°09' W 093°20'0 0.0
2017-Sep-09 14:29N 30°09' W 093°20'0 0.0
2017-Sep-09 13:58N 30°09' W 093°20'0 0.0
2017-Sep-09 13:03N 30°09' W 093°20'0 0.0
2017-Sep-09 13:00N 30°09' W 093°20'0 0.0
2017-Sep-09 12:30N 30°09' W 093°20'0 0.0
2017-Sep-09 12:00N 30°09' W 093°20'0 0.0
2017-Sep-09 11:29N 30°09' W 093°20'0 0.0
2017-Sep-09 10:57N 30°09' W 093°20'0 0.0
2017-Sep-09 10:26N 30°09' W 093°20'0 0.0
2017-Sep-09 09:58N 30°09' W 093°20'0 0.0
2017-Sep-09 09:30N 30°09' W 093°20'0 0.0
2017-Sep-09 08:58N 30°09' W 093°20'0 0.0
2017-Sep-09 08:30N 30°09' W 093°20'0 0.0
2017-Sep-09 07:59N 30°09' W 093°20'0 0.0
2017-Sep-09 07:30N 30°09' W 093°20'0 0.0
2017-Sep-09 07:00N 30°09' W 093°20'0 0.0
2017-Sep-09 06:30N 30°09' W 093°20'1 0.3
2017-Sep-09 04:29N 30°08' W 093°19'0 0.2
2017-Sep-09 03:50N 30°08' W 093°19'0 0.0
2017-Sep-09 03:10N 30°08' W 093°19'0 0.0
2017-Sep-09 03:00N 30°08' W 093°19'0 0.0
2017-Sep-09 02:22N 30°08' W 093°19'0 0.0
2017-Sep-09 02:00N 30°08' W 093°19'0 0.0
2017-Sep-09 01:21N 30°08' W 093°19'0 0.0
2017-Sep-09 01:00N 30°08' W 093°19'0 0.0
2017-Sep-09 00:30N 30°08' W 093°19'0 0.0
2017-Sep-09 00:00N 30°08' W 093°19'0 0.0
2017-Sep-08 23:30N 30°08' W 093°19'0 0.0
2017-Sep-08 23:00N 30°08' W 093°19'0 0.0
2017-Sep-08 22:30N 30°08' W 093°19'0 0.0
2017-Sep-08 22:00N 30°08' W 093°19'0 0.0
2017-Sep-08 21:30N 30°08' W 093°19'0 0.0
2017-Sep-08 21:00N 30°08' W 093°19'0 0.0
2017-Sep-08 20:30N 30°08' W 093°19'0 0.0
2017-Sep-08 20:00N 30°08' W 093°19'0 0.0
2017-Sep-08 19:30N 30°08' W 093°19'0 0.0
2017-Sep-08 19:00N 30°08' W 093°19'0 0.0
2017-Sep-08 18:30N 30°08' W 093°19'0 0.0
2017-Sep-08 18:00N 30°08' W 093°19'0 0.0
2017-Sep-08 17:30N 30°08' W 093°19'0 0.0
2017-Sep-08 17:00N 30°08' W 093°19'0 0.0
2017-Sep-08 16:30N 30°08' W 093°19'0 0.0
2017-Sep-08 16:00N 30°08' W 093°19'0 0.0
2017-Sep-08 15:30N 30°08' W 093°19'0 0.0
2017-Sep-08 15:00N 30°08' W 093°19'0 0.0
2017-Sep-08 14:30N 30°08' W 093°19'0 0.0
2017-Sep-08 14:00N 30°08' W 093°19'0 0.0
2017-Sep-08 13:30N 30°08' W 093°19'0 0.0
2017-Sep-08 13:00N 30°08' W 093°19'0 0.0
2017-Sep-08 12:30N 30°08' W 093°19'0 0.0
2017-Sep-08 12:00N 30°08' W 093°19'0 0.0
2017-Sep-08 11:30N 30°08' W 093°19'0 0.0
2017-Sep-08 09:54N 30°08' W 093°19'0 0.0
2017-Sep-08 08:48N 30°08' W 093°19'0 0.0
2017-Sep-08 08:18N 30°08' W 093°19'0 0.0
2017-Sep-08 07:55N 30°08' W 093°19'0 0.0
2017-Sep-08 07:30N 30°08' W 093°19'0 0.0
2017-Sep-08 06:44N 30°08' W 093°19'0 0.0
2017-Sep-08 06:16N 30°08' W 093°19'0 0.0
2017-Sep-08 04:57N 30°08' W 093°19'3 1.1
2017-Sep-08 02:17N 30°05' W 093°20'0 0.0
2017-Sep-08 01:55N 30°05' W 093°20'0 0.0
2017-Sep-08 01:30N 30°05' W 093°20'2 3.4
2017-Sep-08 01:00N 30°04' W 093°21'2 4.9
2017-Sep-08 00:30N 30°04' W 093°24'1 1.5
2017-Sep-08 00:00N 30°04' W 093°25'0 0.3
2017-Sep-07 23:30N 30°04' W 093°25'0 0.1
2017-Sep-07 23:00N 30°04' W 093°25'0 0.0
2017-Sep-07 22:30N 30°04' W 093°25'0 0.0
2017-Sep-07 22:00N 30°04' W 093°25'0 0.0
2017-Sep-07 21:30N 30°04' W 093°25'0 0.0
2017-Sep-07 21:00N 30°04' W 093°25'0 0.0
2017-Sep-07 20:30N 30°04' W 093°25'0 0.0
2017-Sep-07 20:00N 30°04' W 093°25'0 0.0
2017-Sep-07 19:30N 30°04' W 093°25'0 0.0
2017-Sep-07 19:00N 30°04' W 093°25'0 0.0
2017-Sep-07 18:30N 30°04' W 093°25'0 0.0
2017-Sep-07 18:00N 30°04' W 093°25'0 0.0
2017-Sep-07 17:30N 30°04' W 093°25'0 0.0
2017-Sep-07 17:00N 30°04' W 093°25'0 0.0
2017-Sep-07 16:30N 30°04' W 093°25'0 0.0
2017-Sep-07 16:00N 30°04' W 093°25'0 0.0
2017-Sep-07 15:30N 30°04' W 093°25'0 0.0
2017-Sep-07 15:00N 30°04' W 093°25'0 0.0
2017-Sep-07 14:30N 30°04' W 093°25'0 0.0
2017-Sep-07 12:08N 30°04' W 093°25'0 0.0
2017-Sep-07 11:59N 30°04' W 093°25'0 0.0
2017-Sep-07 11:30N 30°04' W 093°25'0 0.0
2017-Sep-07 11:00N 30°04' W 093°25'0 0.0
2017-Sep-07 10:29N 30°04' W 093°25'0 0.0
2017-Sep-07 10:00N 30°04' W 093°25'0 0.0
2017-Sep-07 09:30N 30°04' W 093°25'0 0.0
2017-Sep-07 09:00N 30°04' W 093°25'0 0.0
2017-Sep-07 08:30N 30°04' W 093°25'0 0.0
2017-Sep-07 08:00N 30°04' W 093°25'0 0.0
2017-Sep-07 07:30N 30°04' W 093°25'0 0.0
2017-Sep-07 07:00N 30°04' W 093°25'0 0.0
2017-Sep-07 06:30N 30°04' W 093°25'0 0.2
2017-Sep-07 06:00N 30°04' W 093°25'0 0.8
2017-Sep-07 05:30N 30°04' W 093°25'3 5.8
2017-Sep-07 05:00N 30°04' W 093°29'3 6.0
2017-Sep-07 04:29N 30°04' W 093°32'3 5.8
2017-Sep-07 04:00N 30°03' W 093°36'1 2.5
2017-Sep-07 03:30N 30°03' W 093°37'3 5.4
2017-Sep-07 03:00N 30°04' W 093°40'2 4.1
2017-Sep-07 02:30N 30°03' W 093°43'  

Dump ship's entire track history